Time;durP1;ratioP1;P1;durP2;ratioP2;P2;SDS_P1;SDS_P2;PMS_P1;PMS_P2;Temp;Humidity;BMP_temperature;BMP_pressure;BME280_temperature;BME280_humidity;BME280_pressure;Samples;Min_cycle;Max_cycle;Signal;HPM_P1;HPM_P2
2023/07/19 00:01:31;;;;;;;0.00;0.00;;;;;;;15.95;89.25;100277.50;4971220;28;20031;-79
2023/07/19 00:03:56;;;;;;;0.00;0.00;;;;;;;15.93;89.62;100280.56;4940924;28;20027;-76
2023/07/19 00:06:24;;;;;;;0.00;0.00;;;;;;;15.90;89.60;100274.81;4911760;28;20045;-77
2023/07/19 00:08:50;;;;;;;0.00;0.00;;;;;;;15.95;89.84;100283.00;4954031;28;20027;-77
2023/07/19 00:11:15;;;;;;;0.00;0.00;;;;;;;15.94;89.47;100275.84;4945194;28;20046;-77
2023/07/19 00:13:41;;;;;;;0.00;0.00;;;;;;;15.95;89.31;100277.50;4935881;28;20038;-77
2023/07/19 00:16:06;;;;;;;0.00;0.00;;;;;;;15.95;89.67;100272.78;4952846;28;20035;-77
2023/07/19 00:18:32;;;;;;;0.00;0.00;;;;;;;15.90;89.40;100258.28;4938289;28;20118;-77
2023/07/19 00:20:57;;;;;;;0.00;0.00;;;;;;;15.85;88.77;100251.75;4940662;28;20036;-78
2023/07/19 00:23:22;;;;;;;0.00;0.00;;;;;;;15.88;89.31;100251.13;4949464;28;20393;-77
2023/07/19 00:25:48;;;;;;;0.00;0.00;;;;;;;15.96;89.19;100257.06;4952359;29;20031;-79
2023/07/19 00:28:13;;;;;;;0.00;0.00;;;;;;;16.08;88.48;100273.91;4948166;28;20034;-77
2023/07/19 00:30:39;;;;;;;0.00;0.00;;;;;;;16.05;88.82;100266.25;4940206;29;20057;-77
2023/07/19 00:33:04;;;;;;;0.00;0.00;;;;;;;16.10;88.50;100277.19;4919506;28;20118;-75
2023/07/19 00:35:30;;;;;;;0.00;0.00;;;;;;;16.07;89.15;100264.00;4930350;28;20029;-76
2023/07/19 00:37:56;;;;;;;0.00;0.00;;;;;;;16.12;88.76;100250.13;4931296;28;20027;-75
2023/07/19 00:40:22;;;;;;;0.00;0.00;;;;;;;16.10;88.66;100251.53;4922015;29;20390;-76
2023/07/19 00:42:47;;;;;;;0.00;0.00;;;;;;;16.09;88.37;100259.00;4911778;28;20035;-76
2023/07/19 00:45:12;;;;;;;0.00;0.00;;;;;;;16.05;88.46;100258.78;4925762;28;20039;-76
2023/07/19 00:47:39;;;;;;;0.00;0.00;;;;;;;16.04;88.77;100253.59;4923451;28;20042;-76
2023/07/19 00:50:07;;;;;;;0.00;0.00;;;;;;;16.07;88.49;100264.00;4944590;28;20031;-77
2023/07/19 00:52:33;;;;;;;0.00;0.00;;;;;;;16.04;88.59;100259.09;4946489;28;20098;-77
2023/07/19 00:55:00;;;;;;;0.00;0.00;;;;;;;16.03;88.55;100265.72;4932157;29;20560;-78
2023/07/19 00:57:29;;;;;;;0.00;0.00;;;;;;;16.08;88.71;100265.66;4940273;28;20035;-76
2023/07/19 00:59:54;;;;;;;0.00;0.00;;;;;;;16.09;88.16;100266.44;4958154;28;20058;-76
2023/07/19 01:02:20;;;;;;;0.00;0.00;;;;;;;16.11;88.42;100259.50;4956370;28;20039;-78
2023/07/19 01:04:46;;;;;;;0.00;0.00;;;;;;;16.17;88.62;100263.78;4956424;29;20110;-78
2023/07/19 01:07:11;;;;;;;0.00;0.00;;;;;;;16.16;87.91;100270.41;4918369;28;20587;-76
2023/07/19 01:09:37;;;;;;;0.00;0.00;;;;;;;16.18;87.99;100270.94;4942869;28;20034;-76
2023/07/19 01:12:03;;;;;;;0.00;0.00;;;;;;;16.18;87.97;100268.19;4936739;28;20047;-77
2023/07/19 01:14:38;;;;;;;0.00;0.00;;;;;;;16.13;87.93;100256.44;4938549;28;20035;-78
2023/07/19 01:17:14;;;;;;;0.00;0.00;;;;;;;16.13;87.61;100256.44;4955554;28;20073;-78
2023/07/19 01:19:40;;;;;;;0.00;0.00;;;;;;;16.17;87.67;100266.56;4938701;29;20042;-77
2023/07/19 01:22:08;;;;;;;0.00;0.00;;;;;;;16.17;87.73;100258.28;4933896;28;20037;-77
2023/07/19 01:24:40;;;;;;;0.00;0.00;;;;;;;16.18;87.78;100259.91;4948910;28;20030;-78
2023/07/19 01:27:05;;;;;;;0.00;0.00;;;;;;;16.19;88.33;100266.25;4949482;28;20078;-77
2023/07/19 01:29:31;;;;;;;0.00;0.00;;;;;;;16.13;88.39;100262.78;4921361;29;20031;-77
2023/07/19 01:31:56;;;;;;;0.00;0.00;;;;;;;16.14;87.84;100258.91;4915499;29;20536;-78
2023/07/19 01:34:24;;;;;;;0.00;0.00;;;;;;;16.05;87.88;100255.22;4924492;29;20042;-78
2023/07/19 01:36:50;;;;;;;0.00;0.00;;;;;;;15.97;88.30;100253.97;4933043;28;20039;-76
2023/07/19 01:39:15;;;;;;;0.00;0.00;;;;;;;16.05;88.66;100260.75;4940386;28;20046;-77
2023/07/19 01:41:40;;;;;;;0.00;0.00;;;;;;;16.02;88.52;100258.59;4921197;28;20041;-77
2023/07/19 01:44:06;;;;;;;0.00;0.00;;;;;;;15.98;88.48;100249.31;4927526;29;20035;-75
2023/07/19 01:46:31;;;;;;;0.00;0.00;;;;;;;15.98;88.68;100252.06;4909386;29;20039;-77
2023/07/19 01:48:57;;;;;;;0.00;0.00;;;;;;;15.97;88.61;100261.44;4928040;29;20042;-77
2023/07/19 01:51:22;;;;;;;0.00;0.00;;;;;;;15.98;88.58;100260.34;4948864;28;20053;-76
2023/07/19 01:53:48;;;;;;;0.00;0.00;;;;;;;15.97;88.60;100247.66;4907410;28;20501;-77
2023/07/19 01:56:14;;;;;;;0.00;0.00;;;;;;;16.07;88.28;100258.47;4949758;28;20051;-78
2023/07/19 01:58:39;;;;;;;0.00;0.00;;;;;;;16.11;88.00;100264.22;4924418;29;20081;-77
2023/07/19 02:01:05;;;;;;;0.00;0.00;;;;;;;16.09;88.01;100250.75;4936725;28;20409;-77
2023/07/19 02:03:30;;;;;;;0.00;0.00;;;;;;;16.06;88.08;100254.09;4937668;28;20031;-77
2023/07/19 02:05:59;;;;;;;0.00;0.00;;;;;;;16.04;88.23;100248.06;4934766;28;20838;-77
2023/07/19 02:08:25;;;;;;;0.00;0.00;;;;;;;16.03;88.81;100251.94;4954102;28;20031;-77
2023/07/19 02:10:54;;;;;;;0.00;0.00;;;;;;;15.90;88.38;100230.72;4950260;28;20035;-79
2023/07/19 02:13:20;;;;;;;0.00;0.00;;;;;;;15.88;88.12;100229.06;4954466;28;20022;-79
2023/07/19 02:15:48;;;;;;;0.00;0.00;;;;;;;15.96;88.63;100230.31;4919750;28;20038;-77
2023/07/19 02:18:14;;;;;;;0.00;0.00;;;;;;;16.01;88.08;100248.69;4930050;29;20031;-78
2023/07/19 02:20:53;;;;;;;0.00;0.00;;;;;;;15.94;88.28;100238.06;4918904;29;20031;-78
2023/07/19 02:23:19;;;;;;;0.00;0.00;;;;;;;15.96;88.73;100229.47;4920753;28;20067;-77
2023/07/19 02:25:47;;;;;;;0.00;0.00;;;;;;;15.97;88.75;100242.16;4922859;29;20109;-77
2023/07/19 02:28:13;;;;;;;0.00;0.00;;;;;;;15.92;88.29;100231.25;4929378;28;20046;-76
2023/07/19 02:30:45;;;;;;;0.00;0.00;;;;;;;15.89;88.79;100227.16;4923473;29;20470;-77
2023/07/19 02:33:12;;;;;;;0.00;0.00;;;;;;;15.92;88.37;100228.47;4947488;28;20030;-77
2023/07/19 02:35:38;;;;;;;0.00;0.00;;;;;;;15.92;88.50;100234.00;4921485;29;20035;-76
2023/07/19 02:38:03;;;;;;;0.00;0.00;;;;;;;15.94;88.70;100237.25;4932727;28;20049;-80
2023/07/19 02:40:29;;;;;;;0.00;0.00;;;;;;;15.93;87.94;100230.09;4950761;28;20357;-78
2023/07/19 02:42:55;;;;;;;0.00;0.00;;;;;;;15.90;88.23;100225.19;4943011;28;20033;-77
2023/07/19 02:45:20;;;;;;;0.00;0.00;;;;;;;15.93;88.20;100227.34;4924914;29;20390;-77
2023/07/19 02:47:45;;;;;;;0.00;0.00;;;;;;;15.92;87.86;100228.47;4936257;28;20103;-77
2023/07/19 02:50:11;;;;;;;0.00;0.00;;;;;;;15.95;87.96;100225.09;4936296;29;20031;-76
2023/07/19 02:52:36;;;;;;;0.00;0.00;;;;;;;15.93;87.81;100224.56;4951811;28;20354;-76
2023/07/19 02:55:02;;;;;;;0.00;0.00;;;;;;;15.92;87.68;100222.97;4919758;29;20056;-78
2023/07/19 02:57:27;;;;;;;0.00;0.00;;;;;;;15.95;87.92;100225.91;4920612;29;20438;-77
2023/07/19 02:59:55;;;;;;;0.00;0.00;;;;;;;15.96;87.92;100229.47;4939003;29;20373;-78
2023/07/19 03:02:25;;;;;;;0.00;0.00;;;;;;;16.01;87.50;100234.91;4944482;29;20066;-76
2023/07/19 03:04:51;;;;;;;0.00;0.00;;;;;;;15.99;86.96;100229.69;4940004;29;20027;-77
2023/07/19 03:07:16;;;;;;;0.00;0.00;;;;;;;16.04;86.89;100231.53;4915974;29;20482;-77
2023/07/19 03:09:42;;;;;;;0.00;0.00;;;;;;;16.02;86.95;100228.28;4939035;29;20454;-77
2023/07/19 03:12:09;;;;;;;0.00;0.00;;;;;;;15.90;86.95;100208.66;4911635;29;20533;-77
2023/07/19 03:14:34;;;;;;;0.00;0.00;;;;;;;15.88;87.10;100208.97;4954506;29;20027;-77
2023/07/19 03:17:00;;;;;;;0.00;0.00;;;;;;;15.98;87.22;100227.25;4955371;29;20798;-77
2023/07/19 03:19:26;;;;;;;0.00;0.00;;;;;;;15.95;87.16;100227.88;4937208;29;20129;-78
2023/07/19 03:21:51;;;;;;;0.00;0.00;;;;;;;15.85;86.85;100224.16;4937028;29;20070;-78
2023/07/19 03:24:17;;;;;;;0.00;0.00;;;;;;;15.87;86.72;100238.47;4905269;29;20024;-78
2023/07/19 03:26:42;;;;;;;0.00;0.00;;;;;;;15.82;87.25;100227.53;4929264;29;20090;-78
2023/07/19 03:29:10;;;;;;;0.00;0.00;;;;;;;15.83;87.39;100226.44;4915863;29;20090;-78
2023/07/19 03:31:35;;;;;;;0.00;0.00;;;;;;;15.75;87.56;100224.34;4920253;29;20406;-77
2023/07/19 03:34:03;;;;;;;0.00;0.00;;;;;;;15.79;87.29;100236.44;4935886;29;20038;-79
2023/07/19 03:36:29;;;;;;;0.00;0.00;;;;;;;15.74;87.74;100221.88;4934136;29;20079;-77
2023/07/19 03:38:54;;;;;;;0.00;0.00;;;;;;;15.74;87.30;100221.88;4954789;29;20054;-79
2023/07/19 03:41:20;;;;;;;0.00;0.00;;;;;;;15.76;87.77;100231.50;4953700;29;20031;-78
2023/07/19 03:43:47;;;;;;;0.00;0.00;;;;;;;15.79;87.61;100241.94;4924060;29;20118;-78
2023/07/19 03:46:13;;;;;;;0.00;0.00;;;;;;;15.78;87.68;100234.78;4922552;29;20019;-78
2023/07/19 03:48:38;;;;;;;0.00;0.00;;;;;;;15.78;87.86;100229.28;4937553;29;20038;-75
2023/07/19 03:51:04;;;;;;;0.00;0.00;;;;;;;15.74;87.83;100231.00;4937484;29;20575;-78
2023/07/19 03:53:29;;;;;;;0.00;0.00;;;;;;;15.69;87.32;100225.56;4949810;29;20020;-78
2023/07/19 03:55:58;;;;;;;0.00;0.00;;;;;;;15.82;87.79;100246.84;4936738;29;20468;-77
2023/07/19 03:58:24;;;;;;;0.00;0.00;;;;;;;15.79;87.85;100247.47;4946071;28;20042;-78
2023/07/19 04:00:58;;;;;;;0.00;0.00;;;;;;;15.79;87.64;100241.94;4946246;29;20452;-78
2023/07/19 04:03:25;;;;;;;0.00;0.00;;;;;;;15.71;87.47;100226.91;4927883;29;20453;-78
2023/07/19 04:05:54;;;;;;;0.00;0.00;;;;;;;15.76;87.83;100237.00;4937695;29;20036;-78
2023/07/19 04:08:28;;;;;;;0.00;0.00;;;;;;;15.79;87.73;100238.38;4949968;29;20126;-77
2023/07/19 04:11:14;;;;;;;0.00;0.00;;;;;;;15.85;87.92;100245.41;4943134;29;20382;-79
2023/07/19 04:13:41;;;;;;;0.00;0.00;;;;;;;15.77;87.81;100233.13;4940389;29;20126;-78
2023/07/19 04:16:07;;;;;;;0.00;0.00;;;;;;;15.74;87.32;100231.00;4927743;29;20552;-77
2023/07/19 04:18:32;;;;;;;0.00;0.00;;;;;;;15.73;87.41;100226.59;4954731;29;20122;-78
2023/07/19 04:20:58;;;;;;;0.00;0.00;;;;;;;15.82;87.53;100246.84;4935276;29;20035;-77
2023/07/19 04:23:24;;;;;;;0.00;0.00;;;;;;;15.78;87.62;100228.44;4944707;29;20111;-75
2023/07/19 04:25:50;;;;;;;0.00;0.00;;;;;;;15.92;87.61;100247.78;4950669;29;20023;-77
2023/07/19 04:28:31;;;;;;;0.00;0.00;;;;;;;15.78;87.22;100229.28;4937555;29;20042;-78
2023/07/19 04:30:59;;;;;;;0.00;0.00;;;;;;;15.97;87.27;100253.19;4923252;29;20035;-78
2023/07/19 04:33:24;;;;;;;0.00;0.00;;;;;;;15.92;87.55;100234.81;4936374;29;20031;-80
2023/07/19 04:35:50;;;;;;;0.00;0.00;;;;;;;15.96;87.29;100240.50;4917721;29;20039;-77
2023/07/19 04:38:27;;;;;;;0.00;0.00;;;;;;;15.86;87.05;100230.53;4931378;29;20462;-77
2023/07/19 04:40:52;;;;;;;0.00;0.00;;;;;;;15.94;86.88;100237.25;4937652;29;20034;-77
2023/07/19 04:43:18;;;;;;;0.00;0.00;;;;;;;16.03;86.75;100257.47;4947579;29;20028;-77
2023/07/19 04:45:44;;;;;;;0.00;0.00;;;;;;;15.99;87.22;100245.41;4952668;29;20075;-76
2023/07/19 04:48:14;;;;;;;0.00;0.00;;;;;;;15.99;86.63;100240.72;4917378;29;20045;-77
2023/07/19 04:50:42;;;;;;;0.00;0.00;;;;;;;16.11;86.39;100267.78;4951744;29;20035;-75
2023/07/19 04:53:07;;;;;;;0.00;0.00;;;;;;;16.06;86.29;100251.31;4937102;29;20719;-75
2023/07/19 04:55:33;;;;;;;0.00;0.00;;;;;;;16.13;86.58;100257.25;4935454;29;20142;-78
2023/07/19 04:57:58;;;;;;;0.00;0.00;;;;;;;16.13;86.12;100251.72;4914385;29;20038;-77
2023/07/19 05:00:25;;;;;;;0.00;0.00;;;;;;;16.17;86.56;100251.94;4943265;28;20593;-77
2023/07/19 05:02:50;;;;;;;0.00;0.00;;;;;;;16.14;86.32;100253.38;4946304;29;20028;-77
2023/07/19 05:05:16;;;;;;;0.00;0.00;;;;;;;16.21;86.10;100264.81;4941575;29;20039;-77
2023/07/19 05:07:41;;;;;;;0.00;0.00;;;;;;;16.21;86.25;100264.81;4917740;29;20359;-76
2023/07/19 05:10:07;;;;;;;0.00;0.00;;;;;;;16.30;85.89;100272.38;4947394;29;20126;-77
2023/07/19 05:12:33;;;;;;;0.00;0.00;;;;;;;16.33;85.94;100271.75;4918108;29;20032;-77
2023/07/19 05:14:58;;;;;;;0.00;0.00;;;;;;;16.39;85.70;100274.09;4932177;29;20058;-77
2023/07/19 05:17:24;;;;;;;0.00;0.00;;;;;;;16.40;85.07;100283.19;4918561;29;20046;-75
2023/07/19 05:19:49;;;;;;;0.00;0.00;;;;;;;16.41;84.92;100279.28;4924225;29;20034;-74
2023/07/19 05:22:15;;;;;;;0.00;0.00;;;;;;;16.50;84.67;100277.47;4933286;28;20031;-75
2023/07/19 05:24:40;;;;;;;0.00;0.00;;;;;;;16.56;84.75;100275.41;4937680;29;20023;-75
2023/07/19 05:27:06;;;;;;;0.00;0.00;;;;;;;16.49;84.59;100270.28;4932193;29;20023;-74
2023/07/19 05:29:32;;;;;;;0.00;0.00;;;;;;;16.58;84.38;100278.66;4927004;29;20069;-76
2023/07/19 05:31:57;;;;;;;0.00;0.00;;;;;;;16.65;83.97;100278.25;4910318;29;20039;-77
2023/07/19 05:34:23;;;;;;;0.00;0.00;;;;;;;16.60;83.84;100267.31;4928176;29;20027;-79
2023/07/19 05:36:49;;;;;;;0.00;0.00;;;;;;;16.67;83.68;100273.22;4934064;29;20042;-78
2023/07/19 05:39:29;;;;;;;;;;;;;;;;;;;;;
2023/07/19 05:41:57;;;;;;;0.00;0.00;;;;;;;16.77;82.74;100270.22;4951271;28;20142;-78
2023/07/19 05:44:35;;;;;;;;;;;;;;;;;;;;;
2023/07/19 05:47:10;;;;;;;0.00;0.00;;;;;;;16.96;82.08;100288.63;4948366;29;20389;-78
2023/07/19 05:53:06;;;;;;;0.00;0.00;;;;;;;16.85;81.89;100254.84;4936902;29;20030;-79
2023/07/19 05:55:34;;;;;;;0.00;0.00;;;;;;;17.06;81.67;100277.31;4951780;28;20048;-76
2023/07/19 05:58:58;;;;;;;;;;;;;;;;;;;;;
2023/07/19 06:01:34;;;;;;;0.00;0.00;;;;;;;17.01;81.39;100247.03;4941644;29;20042;-78
2023/07/19 06:04:00;;;;;;;0.00;0.00;;;;;;;16.98;80.84;100245.75;4952805;29;20028;-77
2023/07/19 06:06:26;;;;;;;0.00;0.00;;;;;;;17.21;80.92;100279.69;4940140;28;20087;-77
2023/07/19 06:08:51;;;;;;;0.00;0.00;;;;;;;17.26;80.32;100271.28;4940127;29;20045;-77
2023/07/19 06:11:16;;;;;;;0.00;0.00;;;;;;;17.48;80.33;100289.00;4948283;28;20437;-77
2023/07/19 06:13:56;;;;;;;0.00;0.00;;;;;;;17.42;79.53;100257.91;4919296;29;20094;-79
2023/07/19 06:16:26;;;;;;;0.00;0.00;;;;;;;17.49;79.10;100253.88;4929255;29;20066;-78
2023/07/19 06:18:59;;;;;;;0.00;0.00;;;;;;;17.62;78.72;100241.88;4947379;28;20066;-78
2023/07/19 06:21:28;;;;;;;0.00;0.00;;;;;;;17.87;78.31;100270.81;4948028;29;20082;-77
2023/07/19 06:23:54;;;;;;;0.00;0.00;;;;;;;18.06;77.47;100280.81;4951970;29;20023;-78
2023/07/19 06:26:19;;;;;;;0.00;0.00;;;;;;;18.07;77.84;100282.47;4922643;29;20467;-78
2023/07/19 06:28:45;;;;;;;0.00;0.00;;;;;;;18.09;77.37;100296.78;4947768;28;20033;-78
2023/07/19 06:31:13;;;;;;;0.00;0.00;;;;;;;18.17;76.69;100304.31;4914381;29;20242;-76
2023/07/19 06:33:38;;;;;;;0.00;0.00;;;;;;;18.04;76.82;100300.50;4952680;28;20105;-77
2023/07/19 06:36:03;;;;;;;0.00;0.00;;;;;;;18.01;77.18;100305.88;4949618;28;20064;-77
2023/07/19 06:38:29;;;;;;;0.00;0.00;;;;;;;18.11;76.31;100298.09;4924543;29;20098;-79
2023/07/19 06:41:04;;;;;;;0.00;0.00;;;;;;;18.22;76.16;100301.38;4933951;29;20106;-77
2023/07/19 06:43:30;;;;;;;0.00;0.00;;;;;;;18.44;76.31;100313.50;4932795;29;20027;-79
2023/07/19 06:45:55;;;;;;;0.00;0.00;;;;;;;18.73;74.75;100303.78;4940099;29;20390;-75
2023/07/19 06:48:21;;;;;;;0.00;0.00;;;;;;;18.83;73.76;100303.47;4939427;29;20394;-75
2023/07/19 06:50:47;;;;;;;0.00;0.00;;;;;;;18.71;73.41;100306.09;4950264;29;20491;-77
2023/07/19 06:53:12;;;;;;;0.00;0.00;;;;;;;18.55;74.31;100311.25;4948388;29;20514;-76
2023/07/19 06:55:39;;;;;;;0.00;0.00;;;;;;;18.51;74.38;100319.38;4949981;29;20055;-78
2023/07/19 06:58:04;;;;;;;0.00;0.00;;;;;;;18.44;74.04;100310.72;4945621;29;20027;-77
2023/07/19 07:00:30;;;;;;;0.00;0.00;;;;;;;18.52;74.33;100312.72;4931301;29;20501;-78
2023/07/19 07:02:55;;;;;;;0.00;0.00;;;;;;;18.59;73.51;100309.47;4950977;29;20070;-81
2023/07/19 07:05:20;;;;;;;0.00;0.00;;;;;;;18.56;73.51;100307.34;4924281;29;20040;-77
2023/07/19 07:07:46;;;;;;;0.00;0.00;;;;;;;18.60;73.15;100317.47;4957118;28;20023;-79
2023/07/19 07:10:12;;;;;;;0.00;0.00;;;;;;;18.61;73.60;100323.81;4933317;29;20092;-75
2023/07/19 07:12:45;;;;;;;0.00;0.00;;;;;;;18.55;73.37;100323.16;4945177;29;20027;-76
2023/07/19 07:15:10;;;;;;;0.00;0.00;;;;;;;18.42;73.70;100313.03;4935091;29;20650;-79
2023/07/19 07:17:38;;;;;;;0.00;0.00;;;;;;;18.41;73.93;100336.28;4946896;29;20170;-75
2023/07/19 07:20:06;;;;;;;0.00;0.00;;;;;;;18.42;74.49;100332.41;4953706;29;20462;-77
2023/07/19 07:22:32;;;;;;;0.00;0.00;;;;;;;18.75;74.43;100346.66;4936300;29;20035;-77
2023/07/19 07:24:57;;;;;;;0.00;0.00;;;;;;;19.02;72.53;100334.47;4945615;29;20034;-78
2023/07/19 07:27:23;;;;;;;0.00;0.00;;;;;;;19.02;72.25;100334.47;4923473;29;20046;-76
2023/07/19 07:29:48;;;;;;;0.00;0.00;;;;;;;18.89;71.74;100338.22;4920905;29;20035;-76
2023/07/19 07:32:14;;;;;;;0.00;0.00;;;;;;;18.90;72.61;100337.09;4943218;29;20028;-76
2023/07/19 07:34:39;;;;;;;0.00;0.00;;;;;;;19.28;71.39;100330.88;4942838;29;20039;-77
2023/07/19 07:37:05;;;;;;;0.00;0.00;;;;;;;19.69;69.19;100346.16;4948039;29;20030;-76
2023/07/19 07:39:31;;;;;;;0.00;0.00;;;;;;;19.90;68.39;100328.84;4938072;29;20452;-77
2023/07/19 07:41:56;;;;;;;0.00;0.00;;;;;;;20.30;67.02;100325.75;4954059;29;20075;-76
2023/07/19 07:44:22;;;;;;;0.00;0.00;;;;;;;20.67;65.63;100330.78;4929245;29;20418;-77
2023/07/19 07:46:49;;;;;;;0.00;0.00;;;;;;;20.79;63.99;100332.84;4940090;29;20034;-76
2023/07/19 07:49:15;;;;;;;0.00;0.00;;;;;;;20.62;64.40;100319.84;4948637;29;20058;-78
2023/07/19 07:51:40;;;;;;;0.00;0.00;;;;;;;20.64;63.56;100339.78;4927923;29;20112;-77
2023/07/19 07:54:05;;;;;;;0.00;0.00;;;;;;;20.83;63.85;100347.69;4915482;29;20707;-76
2023/07/19 07:56:31;;;;;;;0.00;0.00;;;;;;;21.09;63.62;100344.72;4928961;29;20111;-77
2023/07/19 07:58:57;;;;;;;0.00;0.00;;;;;;;20.97;62.38;100353.81;4935216;29;20459;-77
2023/07/19 08:01:23;;;;;;;0.00;0.00;;;;;;;20.74;63.64;100344.97;4944183;29;20015;-77
2023/07/19 08:03:48;;;;;;;0.00;0.00;;;;;;;20.49;64.32;100343.94;4953390;29;20488;-76
2023/07/19 08:06:14;;;;;;;0.00;0.00;;;;;;;20.15;65.16;100334.63;4938288;29;20038;-77
2023/07/19 08:08:39;;;;;;;0.00;0.00;;;;;;;19.94;65.88;100335.34;4952392;29;20034;-76
2023/07/19 08:11:05;;;;;;;0.00;0.00;;;;;;;19.83;66.53;100339.63;4922217;29;20035;-77
2023/07/19 08:13:31;;;;;;;0.00;0.00;;;;;;;20.10;66.33;100345.94;4935793;29;20046;-76
2023/07/19 08:15:56;;;;;;;0.00;0.00;;;;;;;20.46;66.10;100341.81;4947898;29;20047;-76
2023/07/19 08:18:21;;;;;;;0.00;0.00;;;;;;;20.55;63.96;100337.06;4911250;29;20103;-76
2023/07/19 08:20:47;;;;;;;0.00;0.00;;;;;;;20.53;63.92;100336.56;4939245;29;20028;-77
2023/07/19 08:23:12;;;;;;;0.00;0.00;;;;;;;20.72;63.32;100330.59;4928397;29;20028;-77
2023/07/19 08:25:38;;;;;;;0.00;0.00;;;;;;;21.45;62.74;100329.38;4919994;29;20371;-76
2023/07/19 08:28:03;;;;;;;0.00;0.00;;;;;;;21.81;60.52;100327.06;4933533;29;20042;-77
2023/07/19 08:30:29;;;;;;;0.00;0.00;;;;;;;21.58;59.35;100322.72;4926197;29;20038;-77
2023/07/19 08:32:55;;;;;;;0.00;0.00;;;;;;;21.34;59.90;100334.53;4949143;29;20050;-77
2023/07/19 08:35:21;;;;;;;0.00;0.00;;;;;;;21.71;60.04;100340.25;4915990;29;20106;-76
2023/07/19 08:37:46;;;;;;;0.00;0.00;;;;;;;21.99;58.26;100325.72;4950767;29;20027;-78
2023/07/19 08:40:13;;;;;;;0.00;0.00;;;;;;;21.99;58.10;100328.50;4930917;29;20081;-77
2023/07/19 08:42:40;;;;;;;0.00;0.00;;;;;;;21.78;57.40;100337.69;4939702;29;20046;-77
2023/07/19 08:45:07;;;;;;;0.00;0.00;;;;;;;21.87;57.68;100334.03;4929902;29;20122;-77
2023/07/19 08:47:33;;;;;;;0.00;0.00;;;;;;;22.60;56.89;100321.31;4921282;29;20508;-77
2023/07/19 08:50:00;;;;;;;0.00;0.00;;;;;;;23.09;55.29;100331.56;4924581;29;20046;-75
2023/07/19 08:52:27;;;;;;;0.00;0.00;;;;;;;23.16;54.57;100327.03;4934871;29;20035;-78
2023/07/19 08:54:52;;;;;;;0.00;0.00;;;;;;;23.27;53.49;100326.53;4929549;28;20027;-77
2023/07/19 08:57:18;;;;;;;0.00;0.00;;;;;;;23.29;52.46;100326.97;4927195;29;20374;-77
2023/07/19 08:59:43;;;;;;;0.00;0.00;;;;;;;22.96;52.53;100330.78;4931350;28;20061;-78
2023/07/19 09:02:09;;;;;;;0.00;0.00;;;;;;;22.75;54.03;100334.53;4909781;28;20125;-77
2023/07/19 09:04:36;;;;;;;0.00;0.00;;;;;;;22.28;53.68;100327.47;4930937;29;20035;-77
2023/07/19 09:07:05;;;;;;;0.00;0.00;;;;;;;21.69;55.40;100331.44;4966910;28;20037;-77
2023/07/19 09:09:31;;;;;;;0.00;0.00;;;;;;;21.41;56.03;100334.78;4953902;28;20492;-78
2023/07/19 09:11:57;;;;;;;0.00;0.00;;;;;;;21.62;56.04;100333.97;4969976;28;20022;-78
2023/07/19 09:14:36;;;;;;;0.00;0.00;;;;;;;22.60;52.67;100332.47;4950912;28;20114;-78
2023/07/19 09:17:02;;;;;;;0.00;0.00;;;;;;;23.33;50.35;100325.09;4951702;28;20019;-76
2023/07/19 09:19:28;;;;;;;0.00;0.00;;;;;;;24.14;50.39;100326.88;4938530;28;20058;-77
2023/07/19 09:21:53;;;;;;;0.00;0.00;;;;;;;24.16;47.65;100332.91;4950529;28;20037;-77
2023/07/19 09:24:18;;;;;;;0.00;0.00;;;;;;;23.27;48.93;100332.09;4952990;28;20031;-77
2023/07/19 09:26:57;;;;;;;0.00;0.00;;;;;;;22.84;50.54;100326.84;4922589;28;20063;-76
2023/07/19 09:29:30;;;;;;;0.00;0.00;;;;;;;22.47;51.69;100337.22;4935147;28;20029;-77
2023/07/19 09:31:58;;;;;;;0.00;0.00;;;;;;;22.39;51.71;100327.84;4949186;28;21050;-77
2023/07/19 09:34:26;;;;;;;0.00;0.00;;;;;;;22.61;51.43;100342.44;4952775;28;20037;-76
2023/07/19 09:36:55;;;;;;;0.00;0.00;;;;;;;23.10;51.42;100336.81;4935739;28;20069;-77
2023/07/19 09:39:24;;;;;;;0.00;0.00;;;;;;;23.76;47.53;100337.44;4922640;28;20029;-76
2023/07/19 09:41:51;;;;;;;0.00;0.00;;;;;;;24.22;46.33;100337.88;4952189;28;20429;-77
2023/07/19 09:44:17;;;;;;;0.00;0.00;;;;;;;24.22;46.29;100343.47;4937703;28;20481;-76
2023/07/19 09:46:44;;;;;;;0.00;0.00;;;;;;;23.53;47.68;100334.44;4947464;28;20027;-76
2023/07/19 09:49:10;;;;;;;0.00;0.00;;;;;;;22.64;49.96;100347.31;4945618;29;20034;-77
2023/07/19 09:51:39;;;;;;;0.00;0.00;;;;;;;22.31;50.52;100337.06;4933554;28;20046;-78
2023/07/19 09:54:10;;;;;;;0.00;0.00;;;;;;;22.46;50.68;100333.63;4949736;28;20458;-79
2023/07/19 09:56:37;;;;;;;0.00;0.00;;;;;;;22.97;50.88;100335.19;4942443;28;20172;-76
2023/07/19 09:59:06;;;;;;;0.00;0.00;;;;;;;23.83;48.12;100343.22;4941187;29;20122;-76
2023/07/19 10:01:31;;;;;;;0.00;0.00;;;;;;;25.72;45.71;100349.16;4945440;29;20475;-77
2023/07/19 10:04:00;;;;;;;0.00;0.00;;;;;;;27.63;40.94;100350.03;4933184;29;20069;-77
2023/07/19 10:06:30;;;;;;;0.00;0.00;;;;;;;27.08;39.79;100344.13;4940224;29;20035;-77
2023/07/19 10:09:23;;;;;;;0.00;0.00;;;;;;;25.63;41.44;100359.75;4950394;29;20015;-77
2023/07/19 10:11:51;;;;;;;0.00;0.00;;;;;;;25.14;43.14;100359.16;4939638;29;20051;-77
2023/07/19 10:14:26;;;;;;;0.00;0.00;;;;;;;24.56;44.39;100360.63;4941641;29;20144;-77
2023/07/19 10:17:03;;;;;;;0.00;0.00;;;;;;;27.98;39.85;100362.88;4932439;29;20123;-77
2023/07/19 10:19:29;;;;;;;0.00;0.00;;;;;;;32.52;31.09;100370.75;4929117;29;20062;-77
2023/07/19 10:22:04;;;;;;;0.00;0.00;;;;;;;35.74;25.14;100358.84;4922547;29;20055;-77
2023/07/19 10:24:35;;;;;;;0.00;0.00;;;;;;;37.25;23.85;100359.84;4939216;29;20524;-76
2023/07/19 10:27:06;;;;;;;0.00;0.00;;;;;;;38.46;22.96;100365.00;4949189;29;20027;-77
2023/07/19 10:29:45;;;;;;;0.00;0.00;;;;;;;36.83;24.93;100366.34;4933577;29;20381;-77
2023/07/19 10:32:11;;;;;;;0.00;0.00;;;;;;;39.08;23.01;100368.09;4951280;29;20041;-78
2023/07/19 10:34:37;;;;;;;0.00;0.00;;;;;;;42.07;21.66;100357.25;4949662;29;20502;-76
2023/07/19 10:37:06;;;;;;;0.00;0.00;;;;;;;43.70;16.13;100366.69;4935638;29;20039;-77
2023/07/19 10:39:32;;;;;;;0.00;0.00;;;;;;;40.35;18.20;100361.06;4945023;28;20027;-77
2023/07/19 10:42:01;;;;;;;0.00;0.00;;;;;;;38.73;20.39;100368.13;4948578;29;20378;-78
2023/07/19 10:44:27;;;;;;;0.00;0.00;;;;;;;39.78;20.36;100373.59;4950224;29;20086;-76
2023/07/19 10:46:54;;;;;;;0.00;0.00;;;;;;;40.29;19.33;100357.22;4946700;28;20031;-77
2023/07/19 10:49:22;;;;;;;0.00;0.00;;;;;;;41.57;18.55;100365.47;4944349;29;20032;-76
2023/07/19 10:52:06;;;;;;;0.00;0.00;;;;;;;41.80;17.29;100367.63;4937972;29;20031;-76
2023/07/19 10:54:32;;;;;;;0.00;0.00;;;;;;;42.80;17.55;100378.19;4951588;28;20366;-76
2023/07/19 10:56:57;;;;;;;0.00;0.00;;;;;;;44.85;16.27;100370.63;4918192;29;20047;-76
2023/07/19 10:59:23;;;;;;;0.00;0.00;;;;;;;44.59;16.10;100371.38;4929424;29;20087;-77
2023/07/19 11:01:49;;;;;;;0.00;0.00;;;;;;;45.03;16.69;100375.28;4930603;29;20027;-76
2023/07/19 11:04:18;;;;;;;0.00;0.00;;;;;;;47.36;15.41;100370.31;4933096;29;20482;-75
2023/07/19 11:06:59;;;;;;;0.00;0.00;;;;;;;49.70;12.81;100359.22;4930986;29;20031;-77
2023/07/19 11:09:25;;;;;;;0.00;0.00;;;;;;;48.13;12.59;100365.47;4951471;29;20031;-76
2023/07/19 11:11:51;;;;;;;0.00;0.00;;;;;;;46.82;13.83;100370.44;4934486;29;20078;-76
2023/07/19 11:14:33;;;;;;;0.00;0.00;;;;;;;47.79;13.56;100362.66;4936192;29;20031;-78
2023/07/19 11:16:59;;;;;;;0.00;0.00;;;;;;;45.56;14.54;100358.72;4935649;29;20450;-77
2023/07/19 11:19:39;;;;;;;0.00;0.00;;;;;;;46.61;15.09;100347.53;4914384;29;20028;-78
2023/07/19 11:22:07;;;;;;;0.00;0.00;;;;;;;48.90;14.26;100373.56;4949074;29;20478;-77
2023/07/19 11:24:59;;;;;;;0.00;0.00;;;;;;;50.40;10.81;100355.81;4948379;29;20094;-76
2023/07/19 11:27:36;;;;;;;0.00;0.00;;;;;;;51.14;11.42;100367.16;4933081;29;20047;-77
2023/07/19 11:30:02;;;;;;;0.00;0.00;;;;;;;49.64;12.10;100368.00;4947753;29;20040;-77
2023/07/19 11:32:28;;;;;;;0.00;0.00;;;;;;;47.45;12.90;100359.78;4931873;29;20038;-77
2023/07/19 11:34:56;;;;;;;0.00;0.00;;;;;;;44.90;14.23;100367.78;4925106;29;20031;-77